IBET216 GCFV-LEGR
Flight info
| Callsign | IBET216 |
|---|---|
| Flight time | 1h 52m |
| Altitude | 38000 |
| Route | KORAL UG5 SONSO DCT ADUBI N871 VJF N851 MGA DCT GDA |
| Aircraft | B738/M-SDE2E3FGHIRWXY/LB1 |
Departure
| Time | 2026-05-07 05:45 |
|---|---|
| Airport | Fuerteventura Airport (GCFV) |
Arrival
| Time | 2026-05-07 07:38 |
|---|---|
| Airport | F.G.L. Airport Granada-Jaén Airport (LEGR) |
| Time | Latitude | Longitude | Altitude | Speed | Heading |
|---|---|---|---|---|---|
| 2026-05-07 05:28 | 28.45046 | -13.86831 | 30 ft | 0 kts | 271° |
| 2026-05-07 05:35 | 28.45046 | -13.86823 | 30 ft | 2 kts | 270° |
| 2026-05-07 05:35 | 28.45046 | -13.86806 | 30 ft | 2 kts | 270° |
| 2026-05-07 05:35 | 28.45046 | -13.86789 | 30 ft | 2 kts | 270° |
| 2026-05-07 05:36 | 28.45048 | -13.86772 | 30 ft | 2 kts | 248° |
| 2026-05-07 05:36 | 28.45055 | -13.86757 | 30 ft | 2 kts | 231° |
| 2026-05-07 05:36 | 28.45066 | -13.86745 | 30 ft | 2 kts | 213° |
| 2026-05-07 05:36 | 28.45079 | -13.86738 | 30 ft | 2 kts | 194° |
| 2026-05-07 05:37 | 28.45094 | -13.86736 | 30 ft | 1 kts | 178° |
| 2026-05-07 05:37 | 28.45098 | -13.86736 | 30 ft | 0 kts | 178° |
| 2026-05-07 05:39 | 28.45097 | -13.86736 | 30 ft | 0 kts | 178° |
| 2026-05-07 05:39 | 28.45003 | -13.86741 | 30 ft | 25 kts | 184° |
| 2026-05-07 05:39 | 28.44832 | -13.86749 | 30 ft | 24 kts | 181° |
| 2026-05-07 05:40 | 28.44665 | -13.86755 | 30 ft | 23 kts | 181° |
| 2026-05-07 05:40 | 28.44499 | -13.86760 | 30 ft | 23 kts | 181° |
| 2026-05-07 05:40 | 28.44338 | -13.86765 | 30 ft | 23 kts | 181° |
| 2026-05-07 05:40 | 28.44177 | -13.86771 | 30 ft | 21 kts | 182° |
| 2026-05-07 05:41 | 28.44072 | -13.86755 | 30 ft | 13 kts | 128° |
| 2026-05-07 05:41 | 28.44055 | -13.86649 | 30 ft | 13 kts | 112° |
| 2026-05-07 05:41 | 28.43976 | -13.86612 | 30 ft | 13 kts | 180° |
| 2026-05-07 05:41 | 28.43873 | -13.86613 | 30 ft | 18 kts | 181° |
| 2026-05-07 05:42 | 28.43716 | -13.86619 | 30 ft | 25 kts | 182° |
| 2026-05-07 05:42 | 28.43537 | -13.86627 | 30 ft | 25 kts | 181° |
| 2026-05-07 05:42 | 28.43370 | -13.86632 | 30 ft | 17 kts | 181° |
| 2026-05-07 05:42 | 28.43270 | -13.86624 | 30 ft | 13 kts | 148° |
| 2026-05-07 05:43 | 28.43248 | -13.86566 | 30 ft | 0 kts | 96° |
| 2026-05-07 05:44 | 28.43247 | -13.86553 | 30 ft | 3 kts | 94° |
| 2026-05-07 05:44 | 28.43250 | -13.86527 | 30 ft | 3 kts | 72° |
| 2026-05-07 05:44 | 28.43264 | -13.86496 | 30 ft | 5 kts | 58° |
| 2026-05-07 05:44 | 28.43289 | -13.86463 | 30 ft | 5 kts | 36° |
| 2026-05-07 05:45 | 28.43342 | -13.86444 | 30 ft | 11 kts | 7° |
| 2026-05-07 05:45 | 28.43602 | -13.86434 | 30 ft | 82 kts | 1° |
| 2026-05-07 05:45 | 28.44491 | -13.86408 | 46 ft | 166 kts | 1° |
| 2026-05-07 05:45 | 28.45632 | -13.86363 | 1057 ft | 166 kts | 3° |
| 2026-05-07 05:46 | 28.46720 | -13.86319 | 1987 ft | 160 kts | 5° |
| 2026-05-07 05:46 | 28.47814 | -13.85924 | 2373 ft | 180 kts | 39° |
| 2026-05-07 05:46 | 28.48463 | -13.84635 | 2799 ft | 205 kts | 73° |
| 2026-05-07 05:46 | 28.48895 | -13.83068 | 3391 ft | 215 kts | 56° |
| 2026-05-07 05:47 | 28.50049 | -13.81914 | 3748 ft | 233 kts | 18° |
| 2026-05-07 05:47 | 28.51656 | -13.81644 | 4404 ft | 244 kts | 3° |
| 2026-05-07 05:47 | 28.53399 | -13.81428 | 5061 ft | 256 kts | 11° |
| 2026-05-07 05:47 | 28.55126 | -13.80837 | 5826 ft | 264 kts | 20° |
| 2026-05-07 05:48 | 28.56805 | -13.79990 | 6581 ft | 271 kts | 24° |
| 2026-05-07 05:48 | 28.58515 | -13.79033 | 7420 ft | 275 kts | 24° |
| 2026-05-07 05:48 | 28.60237 | -13.78066 | 8197 ft | 280 kts | 23° |
| 2026-05-07 05:48 | 28.61982 | -13.77105 | 8986 ft | 284 kts | 22° |
| 2026-05-07 05:49 | 28.63790 | -13.76122 | 9756 ft | 288 kts | 22° |
| 2026-05-07 05:49 | 28.65595 | -13.75147 | 10450 ft | 295 kts | 22° |
| 2026-05-07 05:49 | 28.67496 | -13.74128 | 10869 ft | 308 kts | 22° |
| 2026-05-07 05:49 | 28.69486 | -13.73065 | 11380 ft | 321 kts | 22° |
| 2026-05-07 05:50 | 28.71511 | -13.72013 | 12058 ft | 327 kts | 21° |
| 2026-05-07 05:50 | 28.73610 | -13.70947 | 12852 ft | 330 kts | 20° |
| 2026-05-07 05:50 | 28.75704 | -13.69890 | 13585 ft | 334 kts | 20° |
| 2026-05-07 05:50 | 28.77843 | -13.68810 | 14295 ft | 340 kts | 20° |
| 2026-05-07 05:51 | 28.79999 | -13.67717 | 15080 ft | 343 kts | 20° |
| 2026-05-07 05:51 | 28.82180 | -13.66607 | 15864 ft | 346 kts | 21° |
| 2026-05-07 05:51 | 28.84405 | -13.65472 | 16594 ft | 350 kts | 21° |
| 2026-05-07 05:51 | 28.86633 | -13.64334 | 17294 ft | 354 kts | 21° |
| 2026-05-07 05:52 | 28.88888 | -13.63182 | 17957 ft | 358 kts | 21° |
| 2026-05-07 05:52 | 28.91168 | -13.62016 | 18662 ft | 361 kts | 21° |
| 2026-05-07 05:52 | 28.93455 | -13.60846 | 19412 ft | 363 kts | 20° |
| 2026-05-07 05:52 | 28.95779 | -13.59679 | 20097 ft | 365 kts | 19° |
| 2026-05-07 05:53 | 28.98153 | -13.58617 | 20761 ft | 367 kts | 17° |
| 2026-05-07 05:53 | 29.00564 | -13.57624 | 21411 ft | 370 kts | 15° |
| 2026-05-07 05:53 | 29.02996 | -13.56650 | 22028 ft | 373 kts | 15° |
| 2026-05-07 05:53 | 29.05432 | -13.55673 | 22623 ft | 376 kts | 15° |
| 2026-05-07 05:54 | 29.07928 | -13.54664 | 23234 ft | 379 kts | 15° |
| 2026-05-07 05:54 | 29.10409 | -13.53649 | 23811 ft | 382 kts | 15° |
| 2026-05-07 05:54 | 29.12913 | -13.52575 | 23976 ft | 388 kts | 18° |
| 2026-05-07 05:54 | 29.15330 | -13.51176 | 23979 ft | 391 kts | 27° |
| 2026-05-07 05:55 | 29.17522 | -13.49277 | 23981 ft | 396 kts | 38° |
| 2026-05-07 05:55 | 29.19386 | -13.46979 | 23982 ft | 402 kts | 46° |
| 2026-05-07 05:55 | 29.21081 | -13.44394 | 23980 ft | 405 kts | 50° |
| 2026-05-07 05:55 | 29.22665 | -13.41741 | 23976 ft | 404 kts | 51° |
| 2026-05-07 05:56 | 29.24202 | -13.39084 | 23975 ft | 403 kts | 52° |
| 2026-05-07 05:56 | 29.25757 | -13.36401 | 23976 ft | 404 kts | 51° |
| 2026-05-07 05:56 | 29.27315 | -13.33735 | 23973 ft | 404 kts | 52° |
| 2026-05-07 05:56 | 29.28902 | -13.31051 | 23974 ft | 403 kts | 51° |
| 2026-05-07 05:57 | 29.30473 | -13.28427 | 23970 ft | 403 kts | 51° |
| 2026-05-07 05:57 | 29.32068 | -13.25783 | 23968 ft | 402 kts | 51° |
| 2026-05-07 05:57 | 29.33668 | -13.23142 | 23971 ft | 403 kts | 51° |
| 2026-05-07 05:57 | 29.35270 | -13.20507 | 23971 ft | 403 kts | 50° |
| 2026-05-07 05:58 | 29.36879 | -13.17863 | 23968 ft | 403 kts | 51° |
| 2026-05-07 05:58 | 29.38476 | -13.15240 | 23969 ft | 403 kts | 51° |
| 2026-05-07 05:58 | 29.40064 | -13.12629 | 23968 ft | 402 kts | 50° |
| 2026-05-07 05:58 | 29.41658 | -13.10009 | 23967 ft | 403 kts | 50° |
| 2026-05-07 05:59 | 29.43267 | -13.07361 | 23967 ft | 402 kts | 50° |
| 2026-05-07 05:59 | 29.44852 | -13.04751 | 23969 ft | 402 kts | 50° |
| 2026-05-07 05:59 | 29.46442 | -13.02130 | 23966 ft | 401 kts | 50° |
| 2026-05-07 05:59 | 29.48054 | -12.99475 | 24041 ft | 408 kts | 50° |
| 2026-05-07 06:00 | 29.49679 | -12.96799 | 24666 ft | 409 kts | 50° |
| 2026-05-07 06:00 | 29.51304 | -12.94116 | 25308 ft | 410 kts | 50° |
| 2026-05-07 06:00 | 29.52935 | -12.91423 | 25852 ft | 413 kts | 50° |
| 2026-05-07 06:00 | 29.54586 | -12.88699 | 26340 ft | 417 kts | 50° |
| 2026-05-07 06:01 | 29.56242 | -12.85961 | 26825 ft | 421 kts | 50° |
| 2026-05-07 06:01 | 29.57902 | -12.83215 | 27350 ft | 424 kts | 50° |
| 2026-05-07 06:01 | 29.59584 | -12.80431 | 27796 ft | 428 kts | 50° |
| 2026-05-07 06:01 | 29.61297 | -12.77593 | 28296 ft | 430 kts | 50° |
| 2026-05-07 06:02 | 29.62992 | -12.74782 | 28790 ft | 432 kts | 50° |
| 2026-05-07 06:02 | 29.64713 | -12.71924 | 29206 ft | 436 kts | 50° |
| 2026-05-07 06:02 | 29.66435 | -12.69064 | 29636 ft | 439 kts | 50° |
| 2026-05-07 06:02 | 29.68169 | -12.66182 | 30073 ft | 442 kts | 50° |
| 2026-05-07 06:03 | 29.69936 | -12.63243 | 30526 ft | 444 kts | 50° |
| 2026-05-07 06:03 | 29.71697 | -12.60309 | 30950 ft | 446 kts | 50° |
| 2026-05-07 06:03 | 29.73453 | -12.57384 | 31390 ft | 448 kts | 50° |
| 2026-05-07 06:03 | 29.75215 | -12.54432 | 31809 ft | 450 kts | 50° |
| 2026-05-07 06:04 | 29.76985 | -12.51448 | 32220 ft | 452 kts | 50° |
| 2026-05-07 06:04 | 29.78778 | -12.48417 | 32590 ft | 455 kts | 50° |
| 2026-05-07 06:04 | 29.80546 | -12.45422 | 32973 ft | 457 kts | 50° |
| 2026-05-07 06:04 | 29.82342 | -12.42379 | 33330 ft | 460 kts | 50° |
| 2026-05-07 06:05 | 29.84124 | -12.39354 | 33772 ft | 461 kts | 50° |
| 2026-05-07 06:05 | 29.85931 | -12.36287 | 34114 ft | 463 kts | 50° |
| 2026-05-07 06:05 | 29.87728 | -12.33233 | 34666 ft | 460 kts | 51° |
| 2026-05-07 06:05 | 29.89527 | -12.30175 | 35131 ft | 459 kts | 51° |
| 2026-05-07 06:06 | 29.91307 | -12.27146 | 35531 ft | 459 kts | 51° |
| 2026-05-07 06:06 | 29.93092 | -12.24110 | 35895 ft | 459 kts | 51° |
| 2026-05-07 06:06 | 29.94891 | -12.21046 | 36290 ft | 459 kts | 51° |
| 2026-05-07 06:06 | 29.96674 | -12.18010 | 36604 ft | 460 kts | 51° |
| 2026-05-07 06:07 | 29.98472 | -12.14967 | 36996 ft | 458 kts | 50° |
| 2026-05-07 06:07 | 30.00324 | -12.12006 | 37316 ft | 456 kts | 47° |
| 2026-05-07 06:07 | 30.02368 | -12.09236 | 37600 ft | 453 kts | 41° |
| 2026-05-07 06:07 | 30.04632 | -12.06722 | 37883 ft | 450 kts | 37° |
| 2026-05-07 06:08 | 30.07037 | -12.04374 | 37977 ft | 452 kts | 34° |
| 2026-05-07 06:08 | 30.11976 | -11.99989 | 37966 ft | 448 kts | 32° |
| 2026-05-07 06:09 | 30.16974 | -11.95641 | 37967 ft | 448 kts | 33° |
| 2026-05-07 06:09 | 30.21919 | -11.91248 | 37964 ft | 447 kts | 33° |
| 2026-05-07 06:10 | 30.26810 | -11.86822 | 37971 ft | 449 kts | 33° |
| 2026-05-07 06:10 | 30.31698 | -11.82355 | 37962 ft | 449 kts | 33° |
| 2026-05-07 06:11 | 30.36585 | -11.77871 | 37965 ft | 450 kts | 33° |
| 2026-05-07 06:11 | 30.41495 | -11.73351 | 37960 ft | 449 kts | 34° |
| 2026-05-07 06:12 | 30.46382 | -11.68848 | 37958 ft | 449 kts | 33° |
| 2026-05-07 06:12 | 30.51252 | -11.64356 | 37961 ft | 449 kts | 34° |
| 2026-05-07 06:13 | 30.56159 | -11.59821 | 37959 ft | 449 kts | 34° |
| 2026-05-07 06:13 | 30.61033 | -11.55311 | 37957 ft | 449 kts | 33° |
| 2026-05-07 06:14 | 30.65895 | -11.50807 | 37957 ft | 448 kts | 33° |
| 2026-05-07 06:14 | 30.70790 | -11.46267 | 37958 ft | 449 kts | 34° |
| 2026-05-07 06:15 | 30.75658 | -11.41745 | 37967 ft | 450 kts | 34° |
| 2026-05-07 06:15 | 30.80528 | -11.37216 | 37959 ft | 448 kts | 34° |
| 2026-05-07 06:16 | 30.85391 | -11.32686 | 37955 ft | 448 kts | 34° |
| 2026-05-07 06:16 | 30.90299 | -11.28112 | 37960 ft | 452 kts | 34° |
| 2026-05-07 06:17 | 30.95167 | -11.23563 | 37959 ft | 448 kts | 34° |
| 2026-05-07 06:17 | 31.00043 | -11.19005 | 37967 ft | 451 kts | 34° |
| 2026-05-07 06:18 | 31.04913 | -11.14443 | 37969 ft | 448 kts | 34° |
| 2026-05-07 06:18 | 31.09755 | -11.09903 | 37975 ft | 449 kts | 34° |
| 2026-05-07 06:19 | 31.14632 | -11.05325 | 37963 ft | 449 kts | 34° |
| 2026-05-07 06:19 | 31.19472 | -11.00774 | 37964 ft | 449 kts | 34° |
| 2026-05-07 06:20 | 31.24355 | -10.96177 | 37964 ft | 449 kts | 34° |
| 2026-05-07 06:20 | 31.29199 | -10.91609 | 37967 ft | 450 kts | 34° |
| 2026-05-07 06:21 | 31.34087 | -10.86995 | 37963 ft | 450 kts | 33° |
| 2026-05-07 06:21 | 31.38941 | -10.82407 | 37965 ft | 450 kts | 34° |
| 2026-05-07 06:22 | 31.43799 | -10.77808 | 37957 ft | 449 kts | 33° |
| 2026-05-07 06:22 | 31.51085 | -10.70900 | 37964 ft | 448 kts | 33° |
| 2026-05-07 06:23 | 31.55927 | -10.66298 | 37965 ft | 449 kts | 33° |
| 2026-05-07 06:23 | 31.60795 | -10.61670 | 37964 ft | 450 kts | 33° |
| 2026-05-07 06:24 | 31.65645 | -10.57051 | 37961 ft | 449 kts | 33° |
| 2026-05-07 06:24 | 31.70469 | -10.52450 | 37963 ft | 449 kts | 33° |
| 2026-05-07 06:25 | 31.75313 | -10.47823 | 37963 ft | 449 kts | 33° |
| 2026-05-07 06:25 | 31.80175 | -10.43172 | 37963 ft | 450 kts | 33° |
| 2026-05-07 06:26 | 31.85039 | -10.38517 | 37963 ft | 451 kts | 33° |
| 2026-05-07 06:26 | 31.89894 | -10.33860 | 37965 ft | 450 kts | 34° |
| 2026-05-07 06:27 | 31.94710 | -10.29234 | 37968 ft | 451 kts | 34° |
| 2026-05-07 06:27 | 31.99583 | -10.24547 | 37962 ft | 450 kts | 33° |
| 2026-05-07 06:28 | 32.04440 | -10.19871 | 37966 ft | 452 kts | 33° |
| 2026-05-07 06:28 | 32.09275 | -10.15205 | 37962 ft | 450 kts | 34° |
| 2026-05-07 06:29 | 32.14133 | -10.10512 | 37975 ft | 450 kts | 33° |
| 2026-05-07 06:29 | 32.18966 | -10.05837 | 37968 ft | 450 kts | 34° |
| 2026-05-07 06:30 | 32.23797 | -10.01158 | 37973 ft | 451 kts | 34° |
| 2026-05-07 06:30 | 32.28640 | -9.96462 | 37971 ft | 451 kts | 34° |
| 2026-05-07 06:31 | 32.33482 | -9.91756 | 37966 ft | 451 kts | 34° |
| 2026-05-07 06:31 | 32.38319 | -9.87052 | 37964 ft | 451 kts | 34° |
| 2026-05-07 06:32 | 32.43154 | -9.82344 | 37963 ft | 452 kts | 34° |
| 2026-05-07 06:32 | 32.48024 | -9.77593 | 37959 ft | 452 kts | 34° |
| 2026-05-07 06:33 | 32.52879 | -9.72850 | 37956 ft | 453 kts | 34° |
| 2026-05-07 06:33 | 32.57718 | -9.68115 | 37956 ft | 453 kts | 34° |
| 2026-05-07 06:34 | 32.62555 | -9.63374 | 37946 ft | 453 kts | 34° |
| 2026-05-07 06:34 | 32.67408 | -9.58615 | 37952 ft | 454 kts | 34° |
| 2026-05-07 06:35 | 32.72284 | -9.53823 | 37944 ft | 454 kts | 34° |
| 2026-05-07 06:35 | 32.77121 | -9.49063 | 37945 ft | 452 kts | 34° |
| 2026-05-07 06:36 | 32.81981 | -9.44275 | 37944 ft | 453 kts | 34° |
| 2026-05-07 06:36 | 32.86829 | -9.39492 | 37945 ft | 453 kts | 34° |
| 2026-05-07 06:37 | 32.91693 | -9.34684 | 37953 ft | 454 kts | 34° |
| 2026-05-07 06:37 | 32.96537 | -9.29888 | 37947 ft | 455 kts | 34° |
| 2026-05-07 06:38 | 33.01389 | -9.25079 | 37950 ft | 454 kts | 34° |
| 2026-05-07 06:38 | 33.06250 | -9.20253 | 37947 ft | 454 kts | 34° |
| 2026-05-07 06:39 | 33.11078 | -9.15451 | 37942 ft | 453 kts | 34° |
| 2026-05-07 06:39 | 33.15918 | -9.10634 | 37945 ft | 455 kts | 34° |
| 2026-05-07 06:40 | 33.20768 | -9.05798 | 37950 ft | 454 kts | 34° |
| 2026-05-07 06:40 | 33.25615 | -9.00959 | 37947 ft | 455 kts | 34° |
| 2026-05-07 06:41 | 33.30432 | -8.96140 | 37948 ft | 454 kts | 34° |
| 2026-05-07 06:41 | 33.35275 | -8.91290 | 37949 ft | 455 kts | 34° |
| 2026-05-07 06:42 | 33.40120 | -8.86427 | 37948 ft | 453 kts | 34° |
| 2026-05-07 06:42 | 33.44964 | -8.81558 | 37942 ft | 452 kts | 34° |
| 2026-05-07 06:43 | 33.49792 | -8.76703 | 37946 ft | 455 kts | 34° |
| 2026-05-07 06:43 | 33.54607 | -8.71853 | 37947 ft | 453 kts | 34° |
| 2026-05-07 06:44 | 33.59427 | -8.66992 | 37946 ft | 458 kts | 34° |
| 2026-05-07 06:44 | 33.64319 | -8.62050 | 37951 ft | 458 kts | 34° |
| 2026-05-07 06:45 | 33.69164 | -8.57141 | 37946 ft | 456 kts | 34° |
| 2026-05-07 06:45 | 33.73999 | -8.52237 | 37948 ft | 456 kts | 34° |
| 2026-05-07 06:46 | 33.78859 | -8.47302 | 37952 ft | 458 kts | 34° |
| 2026-05-07 06:46 | 33.83742 | -8.42338 | 37953 ft | 457 kts | 34° |
| 2026-05-07 06:47 | 33.88575 | -8.37412 | 37953 ft | 455 kts | 34° |
| 2026-05-07 06:47 | 33.93403 | -8.32493 | 37954 ft | 460 kts | 34° |
| 2026-05-07 06:48 | 33.98284 | -8.27507 | 37957 ft | 458 kts | 34° |
| 2026-05-07 06:48 | 34.03142 | -8.22537 | 37947 ft | 459 kts | 34° |
| 2026-05-07 06:49 | 34.08006 | -8.17554 | 37949 ft | 462 kts | 34° |
| 2026-05-07 06:49 | 34.12902 | -8.12528 | 37951 ft | 459 kts | 35° |
| 2026-05-07 06:50 | 34.17777 | -8.07515 | 37949 ft | 463 kts | 35° |
| 2026-05-07 06:50 | 34.22636 | -8.02510 | 37946 ft | 460 kts | 35° |
| 2026-05-07 06:51 | 34.27506 | -7.97485 | 37945 ft | 461 kts | 35° |
| 2026-05-07 06:51 | 34.32358 | -7.92469 | 37942 ft | 461 kts | 34° |
| 2026-05-07 06:52 | 34.37235 | -7.87424 | 37950 ft | 462 kts | 35° |
| 2026-05-07 06:52 | 34.42133 | -7.82352 | 37950 ft | 462 kts | 34° |
| 2026-05-07 06:53 | 34.46981 | -7.77323 | 37942 ft | 464 kts | 35° |
| 2026-05-07 06:53 | 34.51889 | -7.72221 | 37942 ft | 462 kts | 35° |
| 2026-05-07 06:54 | 34.56783 | -7.67122 | 37942 ft | 463 kts | 35° |
| 2026-05-07 06:54 | 34.61638 | -7.62060 | 37946 ft | 464 kts | 34° |
| 2026-05-07 06:55 | 34.66537 | -7.56944 | 37948 ft | 463 kts | 34° |
| 2026-05-07 06:55 | 34.71417 | -7.51843 | 37949 ft | 465 kts | 34° |
| 2026-05-07 06:56 | 34.76329 | -7.46696 | 37940 ft | 464 kts | 34° |
| 2026-05-07 06:56 | 34.81210 | -7.41575 | 37944 ft | 467 kts | 35° |
| 2026-05-07 06:57 | 34.86106 | -7.36428 | 37927 ft | 466 kts | 35° |
| 2026-05-07 06:57 | 34.91025 | -7.31251 | 37929 ft | 469 kts | 35° |
| 2026-05-07 06:58 | 34.95944 | -7.26065 | 37925 ft | 470 kts | 36° |
| 2026-05-07 06:58 | 35.00887 | -7.20843 | 37926 ft | 470 kts | 36° |
| 2026-05-07 06:59 | 35.05844 | -7.15592 | 37911 ft | 472 kts | 36° |
| 2026-05-07 06:59 | 35.10814 | -7.10324 | 37923 ft | 470 kts | 36° |
| 2026-05-07 07:00 | 35.15764 | -7.05064 | 37921 ft | 472 kts | 35° |
| 2026-05-07 07:00 | 35.20703 | -6.99815 | 37924 ft | 472 kts | 36° |
| 2026-05-07 07:01 | 35.25654 | -6.94540 | 37916 ft | 473 kts | 36° |
| 2026-05-07 07:01 | 35.30596 | -6.89272 | 37924 ft | 474 kts | 35° |
| 2026-05-07 07:02 | 35.35587 | -6.83942 | 37926 ft | 478 kts | 35° |
| 2026-05-07 07:02 | 35.40587 | -6.78584 | 37912 ft | 477 kts | 35° |
| 2026-05-07 07:03 | 35.45573 | -6.73229 | 37911 ft | 475 kts | 35° |
| 2026-05-07 07:03 | 35.50519 | -6.67915 | 37914 ft | 478 kts | 36° |
| 2026-05-07 07:04 | 35.55521 | -6.62532 | 37916 ft | 476 kts | 35° |
| 2026-05-07 07:04 | 35.60537 | -6.57133 | 37912 ft | 479 kts | 35° |
| 2026-05-07 07:05 | 35.65511 | -6.51760 | 37924 ft | 479 kts | 35° |
| 2026-05-07 07:05 | 35.70517 | -6.46345 | 37921 ft | 481 kts | 36° |
| 2026-05-07 07:06 | 35.75536 | -6.40909 | 37919 ft | 484 kts | 35° |
| 2026-05-07 07:06 | 35.80581 | -6.35434 | 37931 ft | 483 kts | 36° |
| 2026-05-07 07:07 | 35.85751 | -6.30211 | 37927 ft | 479 kts | 31° |
| 2026-05-07 07:07 | 35.91148 | -6.25499 | 37923 ft | 477 kts | 28° |
| 2026-05-07 07:08 | 35.96634 | -6.20902 | 37916 ft | 476 kts | 28° |
| 2026-05-07 07:08 | 36.02121 | -6.16292 | 37924 ft | 480 kts | 29° |
| 2026-05-07 07:09 | 36.07630 | -6.11614 | 37913 ft | 479 kts | 29° |
| 2026-05-07 07:09 | 36.13110 | -6.06920 | 37914 ft | 481 kts | 29° |
| 2026-05-07 07:10 | 36.18587 | -6.02210 | 37913 ft | 482 kts | 29° |
| 2026-05-07 07:10 | 36.23735 | -5.96905 | 37910 ft | 488 kts | 43° |
| 2026-05-07 07:11 | 36.27797 | -5.90071 | 37907 ft | 496 kts | 54° |
| 2026-05-07 07:11 | 36.31323 | -5.82738 | 37917 ft | 497 kts | 57° |
| 2026-05-07 07:12 | 36.34753 | -5.75274 | 37903 ft | 496 kts | 57° |
| 2026-05-07 07:12 | 36.36457 | -5.71576 | 37798 ft | 495 kts | 57° |
| 2026-05-07 07:12 | 36.38153 | -5.67910 | 37438 ft | 490 kts | 57° |
| 2026-05-07 07:13 | 36.39852 | -5.64260 | 36941 ft | 487 kts | 57° |
| 2026-05-07 07:13 | 36.41545 | -5.60639 | 36354 ft | 487 kts | 56° |
| 2026-05-07 07:13 | 36.43238 | -5.57031 | 35706 ft | 487 kts | 56° |
| 2026-05-07 07:13 | 36.44967 | -5.53359 | 35039 ft | 489 kts | 56° |
| 2026-05-07 07:14 | 36.46678 | -5.49735 | 34333 ft | 492 kts | 57° |
| 2026-05-07 07:14 | 36.48402 | -5.46078 | 33521 ft | 496 kts | 57° |
| 2026-05-07 07:14 | 36.50069 | -5.42291 | 32658 ft | 500 kts | 61° |
| 2026-05-07 07:14 | 36.51527 | -5.38423 | 31835 ft | 503 kts | 64° |
| 2026-05-07 07:15 | 36.52861 | -5.34393 | 31225 ft | 500 kts | 67° |
| 2026-05-07 07:15 | 36.54077 | -5.30415 | 30618 ft | 496 kts | 68° |
| 2026-05-07 07:15 | 36.55251 | -5.26414 | 29992 ft | 493 kts | 69° |
| 2026-05-07 07:15 | 36.56401 | -5.22439 | 29361 ft | 490 kts | 69° |
| 2026-05-07 07:16 | 36.57545 | -5.18481 | 28746 ft | 486 kts | 69° |
| 2026-05-07 07:16 | 36.58691 | -5.14530 | 28125 ft | 482 kts | 70° |
| 2026-05-07 07:16 | 36.59829 | -5.10633 | 27514 ft | 478 kts | 70° |
| 2026-05-07 07:16 | 36.60966 | -5.06757 | 26899 ft | 475 kts | 70° |
| 2026-05-07 07:17 | 36.62094 | -5.02926 | 26275 ft | 471 kts | 70° |
| 2026-05-07 07:17 | 36.63202 | -4.99170 | 25669 ft | 453 kts | 70° |
| 2026-05-07 07:17 | 36.64262 | -4.95583 | 25124 ft | 438 kts | 70° |
| 2026-05-07 07:17 | 36.65298 | -4.92082 | 24594 ft | 429 kts | 70° |
| 2026-05-07 07:18 | 36.66325 | -4.88606 | 23998 ft | 427 kts | 71° |
| 2026-05-07 07:18 | 36.67340 | -4.85170 | 23422 ft | 425 kts | 71° |
| 2026-05-07 07:18 | 36.68347 | -4.81753 | 22877 ft | 422 kts | 71° |
| 2026-05-07 07:18 | 36.69358 | -4.78324 | 22311 ft | 419 kts | 71° |
| 2026-05-07 07:19 | 36.70349 | -4.74953 | 21774 ft | 416 kts | 71° |
| 2026-05-07 07:19 | 36.71339 | -4.71588 | 21222 ft | 414 kts | 71° |
| 2026-05-07 07:19 | 36.72326 | -4.68227 | 20676 ft | 411 kts | 71° |
| 2026-05-07 07:19 | 36.73296 | -4.64919 | 20130 ft | 408 kts | 71° |
| 2026-05-07 07:20 | 36.74267 | -4.61603 | 19571 ft | 406 kts | 71° |
| 2026-05-07 07:20 | 36.75220 | -4.58347 | 18982 ft | 400 kts | 71° |
| 2026-05-07 07:20 | 36.76146 | -4.55189 | 18486 ft | 383 kts | 71° |
| 2026-05-07 07:20 | 36.77044 | -4.52123 | 17981 ft | 369 kts | 71° |
| 2026-05-07 07:21 | 36.77908 | -4.49164 | 17464 ft | 356 kts | 71° |
| 2026-05-07 07:21 | 36.78731 | -4.46340 | 16955 ft | 344 kts | 71° |
| 2026-05-07 07:21 | 36.79540 | -4.43556 | 16559 ft | 339 kts | 71° |
| 2026-05-07 07:21 | 36.80353 | -4.40777 | 15995 ft | 351 kts | 70° |
| 2026-05-07 07:22 | 36.81366 | -4.37979 | 15394 ft | 356 kts | 61° |
| 2026-05-07 07:22 | 36.82801 | -4.35577 | 14885 ft | 344 kts | 45° |
| 2026-05-07 07:22 | 36.84540 | -4.33608 | 14424 ft | 330 kts | 40° |
| 2026-05-07 07:22 | 36.86297 | -4.31837 | 13969 ft | 319 kts | 39° |
| 2026-05-07 07:23 | 36.88026 | -4.30142 | 13574 ft | 318 kts | 39° |
| 2026-05-07 07:23 | 36.89782 | -4.28406 | 13075 ft | 319 kts | 39° |
| 2026-05-07 07:23 | 36.91505 | -4.26675 | 12616 ft | 318 kts | 40° |
| 2026-05-07 07:23 | 36.93203 | -4.24949 | 12172 ft | 318 kts | 40° |
| 2026-05-07 07:24 | 36.94912 | -4.23200 | 11716 ft | 317 kts | 40° |
| 2026-05-07 07:24 | 36.96619 | -4.21449 | 11252 ft | 317 kts | 40° |
| 2026-05-07 07:24 | 36.98322 | -4.19701 | 10790 ft | 317 kts | 40° |
| 2026-05-07 07:24 | 37.00005 | -4.17980 | 10437 ft | 313 kts | 40° |
| 2026-05-07 07:25 | 37.03258 | -4.14655 | 10148 ft | 290 kts | 40° |
| 2026-05-07 07:25 | 37.04799 | -4.13074 | 9997 ft | 280 kts | 40° |
| 2026-05-07 07:25 | 37.06277 | -4.11553 | 9688 ft | 278 kts | 40° |
| 2026-05-07 07:26 | 37.07772 | -4.10012 | 9307 ft | 274 kts | 40° |
| 2026-05-07 07:26 | 37.09219 | -4.08520 | 9015 ft | 263 kts | 41° |
| 2026-05-07 07:26 | 37.10617 | -4.07073 | 8732 ft | 258 kts | 41° |
| 2026-05-07 07:26 | 37.11980 | -4.05662 | 8377 ft | 254 kts | 41° |
| 2026-05-07 07:27 | 37.13314 | -4.04286 | 8118 ft | 242 kts | 40° |
| 2026-05-07 07:27 | 37.14589 | -4.02971 | 7845 ft | 232 kts | 40° |
| 2026-05-07 07:27 | 37.15838 | -4.01776 | 7501 ft | 227 kts | 32° |
| 2026-05-07 07:27 | 37.17300 | -4.01112 | 7244 ft | 219 kts | 4° |
| 2026-05-07 07:28 | 37.18778 | -4.01358 | 6993 ft | 212 kts | 340° |
| 2026-05-07 07:28 | 37.20079 | -4.02129 | 6793 ft | 209 kts | 326° |
| 2026-05-07 07:28 | 37.21123 | -4.03353 | 6726 ft | 204 kts | 307° |
| 2026-05-07 07:28 | 37.21981 | -4.04794 | 6678 ft | 208 kts | 306° |
| 2026-05-07 07:29 | 37.22854 | -4.06246 | 6589 ft | 206 kts | 307° |
| 2026-05-07 07:29 | 37.23732 | -4.07655 | 6537 ft | 205 kts | 308° |
| 2026-05-07 07:29 | 37.24623 | -4.09067 | 6487 ft | 205 kts | 308° |
| 2026-05-07 07:29 | 37.25309 | -4.10586 | 6488 ft | 203 kts | 281° |
| 2026-05-07 07:30 | 37.25284 | -4.12346 | 6492 ft | 202 kts | 252° |
| 2026-05-07 07:30 | 37.24726 | -4.13925 | 6493 ft | 200 kts | 236° |
| 2026-05-07 07:30 | 37.23786 | -4.15205 | 6489 ft | 197 kts | 211° |
| 2026-05-07 07:30 | 37.22529 | -4.15786 | 6489 ft | 196 kts | 187° |
| 2026-05-07 07:31 | 37.21165 | -4.15771 | 6486 ft | 196 kts | 168° |
| 2026-05-07 07:31 | 37.19913 | -4.15103 | 6485 ft | 195 kts | 142° |
| 2026-05-07 07:31 | 37.19013 | -4.13842 | 6494 ft | 193 kts | 122° |
| 2026-05-07 07:31 | 37.18530 | -4.12348 | 6486 ft | 179 kts | 101° |
| 2026-05-07 07:32 | 37.18545 | -4.10813 | 6489 ft | 177 kts | 87° |
| 2026-05-07 07:32 | 37.18604 | -4.09297 | 6491 ft | 176 kts | 91° |
| 2026-05-07 07:32 | 37.18610 | -4.07744 | 6413 ft | 178 kts | 91° |
| 2026-05-07 07:32 | 37.18618 | -4.06195 | 6117 ft | 180 kts | 91° |
| 2026-05-07 07:33 | 37.18636 | -4.04624 | 5856 ft | 179 kts | 90° |
| 2026-05-07 07:33 | 37.18653 | -4.03075 | 5605 ft | 177 kts | 90° |
| 2026-05-07 07:33 | 37.18667 | -4.01538 | 5355 ft | 175 kts | 91° |
| 2026-05-07 07:33 | 37.18681 | -4.00048 | 5125 ft | 172 kts | 90° |
| 2026-05-07 07:34 | 37.18695 | -3.98547 | 4898 ft | 174 kts | 91° |
| 2026-05-07 07:34 | 37.18710 | -3.97064 | 4619 ft | 164 kts | 90° |
| 2026-05-07 07:34 | 37.18723 | -3.95675 | 4420 ft | 159 kts | 90° |
| 2026-05-07 07:34 | 37.18735 | -3.94275 | 4197 ft | 160 kts | 90° |
| 2026-05-07 07:35 | 37.18748 | -3.92892 | 3979 ft | 159 kts | 90° |
| 2026-05-07 07:35 | 37.18760 | -3.91524 | 3821 ft | 156 kts | 90° |
| 2026-05-07 07:35 | 37.18772 | -3.90170 | 3527 ft | 150 kts | 90° |
| 2026-05-07 07:35 | 37.18782 | -3.88891 | 3346 ft | 144 kts | 90° |
| 2026-05-07 07:36 | 37.18793 | -3.87616 | 3159 ft | 147 kts | 90° |
| 2026-05-07 07:36 | 37.18804 | -3.86345 | 2960 ft | 145 kts | 90° |
| 2026-05-07 07:36 | 37.18814 | -3.85072 | 2763 ft | 146 kts | 90° |
| 2026-05-07 07:36 | 37.18825 | -3.83813 | 2568 ft | 146 kts | 90° |
| 2026-05-07 07:37 | 37.18825 | -3.82549 | 2367 ft | 145 kts | 91° |
| 2026-05-07 07:37 | 37.18851 | -3.81292 | 2201 ft | 145 kts | 87° |
| 2026-05-07 07:37 | 37.18867 | -3.80046 | 2032 ft | 139 kts | 90° |
| 2026-05-07 07:37 | 37.18874 | -3.78884 | 1847 ft | 121 kts | 90° |
| 2026-05-07 07:38 | 37.18876 | -3.78142 | 1851 ft | 51 kts | 89° |
| 2026-05-07 07:38 | 37.18877 | -3.77746 | 1855 ft | 50 kts | 89° |
| 2026-05-07 07:38 | 37.18880 | -3.77384 | 1857 ft | 35 kts | 90° |
| 2026-05-07 07:38 | 37.18848 | -3.77126 | 1861 ft | 19 kts | 112° |
| 2026-05-07 07:39 | 37.18797 | -3.76998 | 1862 ft | 14 kts | 124° |
| 2026-05-07 07:39 | 37.18722 | -3.76984 | 1863 ft | 12 kts | 241° |
| 2026-05-07 07:39 | 37.18710 | -3.77094 | 1864 ft | 13 kts | 268° |
| 2026-05-07 07:39 | 37.18708 | -3.77198 | 1863 ft | 0 kts | 266° |
| 2026-05-07 07:40 | 37.18705 | -3.77205 | 1863 ft | 1 kts | 237° |
| 2026-05-07 07:40 | 37.18685 | -3.77236 | 1864 ft | 5 kts | 232° |
| 2026-05-07 07:40 | 37.18671 | -3.77272 | 1864 ft | 4 kts | 259° |
| 2026-05-07 07:40 | 37.18670 | -3.77286 | 1864 ft | 0 kts | 264° |